Time;durP1;ratioP1;P1;durP2;ratioP2;P2;SDS_P1;SDS_P2;PMS_P1;PMS_P2;Temp;Humidity;BMP_temperature;BMP_pressure;BME280_temperature;BME280_humidity;BME280_pressure;Samples;Min_cycle;Max_cycle;Signal;HPM_P1;HPM_P2
2021/12/08 00:00:23;;;;;;;1.55;1.35;;;;;;;;;;4180368;28;20111;-35
2021/12/08 00:02:25;;;;;;;1.63;0.82;;;;;;;;;;4180644;28;20064;-34
2021/12/08 00:04:26;;;;;;;1.40;1.10;;;;;;;;;;4180297;28;20053;-34
2021/12/08 00:06:27;;;;;;;1.10;0.85;;;;;;;;;;4180565;28;20052;-34
2021/12/08 00:08:30;;;;;;;1.40;0.93;;;;;;;;;;4179970;28;20060;-33
2021/12/08 00:14:52;;;;;;;;;;;;;;;;;;4180768;28;20413;-34
2021/12/08 00:16:54;;;;;;;1.15;0.80;;;;;;;;;;4180239;28;20295;-34
2021/12/08 00:18:58;;;;;;;1.30;0.85;;;;;;;;;;4180434;28;20118;-34
2021/12/08 00:21:03;;;;;;;1.85;1.08;;;;;;;;;;4180390;28;20060;-34
2021/12/08 00:23:05;;;;;;;1.73;1.15;;;;;;;;;;4179647;28;20059;-33
2021/12/08 00:25:06;;;;;;;1.40;1.15;;;;;;;;;;4180375;28;20098;-34
2021/12/08 00:27:08;;;;;;;1.10;0.95;;;;;;;;;;4180148;28;20448;-33
2021/12/08 00:29:09;;;;;;;1.40;0.98;;;;;;;;;;4147443;28;20418;-34
2021/12/08 00:31:10;;;;;;;1.23;0.85;;;;;;;;;;4183392;28;20052;-33
2021/12/08 00:33:12;;;;;;;1.02;0.95;;;;;;;;;;4183232;28;20048;-34
2021/12/08 00:35:14;;;;;;;0.98;0.88;;;;;;;;;;4182008;28;20057;-34
2021/12/08 00:37:15;;;;;;;1.65;1.30;;;;;;;;;;4182233;28;20053;-34
2021/12/08 00:39:17;;;;;;;1.73;1.00;;;;;;;;;;4164666;28;20092;-34
2021/12/08 00:41:18;;;;;;;1.10;1.00;;;;;;;;;;4183302;28;20088;-34
2021/12/08 00:43:21;;;;;;;1.10;0.90;;;;;;;;;;4183036;28;20102;-35
2021/12/08 00:45:24;;;;;;;1.45;0.95;;;;;;;;;;4183095;28;20497;-35
2021/12/08 00:47:26;;;;;;;1.80;1.10;;;;;;;;;;4182832;28;20134;-34
2021/12/08 00:49:27;;;;;;;1.98;1.20;;;;;;;;;;4182665;28;20083;-34
2021/12/08 00:51:28;;;;;;;1.15;1.02;;;;;;;;;;4182778;28;20102;-34
2021/12/08 00:53:30;;;;;;;1.17;1.00;;;;;;;;;;4182220;28;20102;-34
2021/12/08 00:55:31;;;;;;;1.17;0.93;;;;;;;;;;4182640;28;20492;-34
2021/12/08 00:57:33;;;;;;;1.10;0.88;;;;;;;;;;4182717;28;20115;-34
2021/12/08 00:59:34;;;;;;;1.52;1.23;;;;;;;;;;4182963;28;20084;-34
2021/12/08 01:01:35;;;;;;;1.10;0.80;;;;;;;;;;4164976;28;20115;-34
2021/12/08 01:03:37;;;;;;;0.90;0.70;;;;;;;;;;4165057;28;20084;-34
2021/12/08 01:05:41;;;;;;;1.70;1.00;;;;;;;;;;4182933;28;20057;-34
2021/12/08 01:07:42;;;;;;;1.20;0.90;;;;;;;;;;4182218;28;20473;-34
2021/12/08 01:09:43;;;;;;;1.75;1.10;;;;;;;;;;4182733;28;20057;-34
2021/12/08 01:11:44;;;;;;;1.58;1.13;;;;;;;;;;4182412;28;20067;-35
2021/12/08 01:13:46;;;;;;;1.40;1.25;;;;;;;;;;4182189;28;20061;-34
2021/12/08 01:15:54;;;;;;;1.75;0.95;;;;;;;;;;4182361;28;20103;-34
2021/12/08 01:17:56;;;;;;;1.60;1.10;;;;;;;;;;4182414;28;20068;-35
2021/12/08 01:19:57;;;;;;;1.65;0.90;;;;;;;;;;4182368;28;20052;-34
2021/12/08 01:21:58;;;;;;;1.50;1.10;;;;;;;;;;4182417;28;20063;-34
2021/12/08 01:24:01;;;;;;;1.33;1.08;;;;;;;;;;4181684;28;20052;-35
2021/12/08 01:26:05;;;;;;;1.10;0.98;;;;;;;;;;4182692;28;20060;-35
2021/12/08 01:28:06;;;;;;;1.38;1.27;;;;;;;;;;4182224;28;20444;-34
2021/12/08 01:30:08;;;;;;;1.35;1.02;;;;;;;;;;4182078;28;20056;-34
2021/12/08 01:32:09;;;;;;;1.02;0.90;;;;;;;;;;4182210;28;20102;-35
2021/12/08 01:34:12;;;;;;;1.38;1.00;;;;;;;;;;4181840;28;20099;-34
2021/12/08 01:36:13;;;;;;;1.65;0.88;;;;;;;;;;4182354;28;20088;-34
2021/12/08 01:38:14;;;;;;;1.48;1.10;;;;;;;;;;4182206;28;20068;-34
2021/12/08 01:40:17;;;;;;;1.00;0.90;;;;;;;;;;4180812;28;20102;-35
2021/12/08 01:42:27;;;;;;;1.60;1.10;;;;;;;;;;4182026;28;20179;-33
2021/12/08 01:46:51;;;;;;;1.10;0.95;;;;;;;;;;4181969;28;20057;-35
2021/12/08 01:48:52;;;;;;;1.27;1.00;;;;;;;;;;4181647;28;20065;-34
2021/12/08 01:50:57;;;;;;;1.40;0.98;;;;;;;;;;4182006;28;20057;-34
2021/12/08 01:52:58;;;;;;;1.10;1.00;;;;;;;;;;4181353;28;20064;-35
2021/12/08 01:54:59;;;;;;;2.03;1.15;;;;;;;;;;4181766;28;20110;-34
2021/12/08 01:57:01;;;;;;;1.40;1.23;;;;;;;;;;4180584;28;20106;-34
2021/12/08 01:59:04;;;;;;;1.30;1.08;;;;;;;;;;4181537;28;20110;-34
2021/12/08 02:01:08;;;;;;;1.52;1.20;;;;;;;;;;4181618;28;20514;-35
2021/12/08 02:03:09;;;;;;;1.02;0.90;;;;;;;;;;4181664;28;20099;-34
2021/12/08 02:05:11;;;;;;;1.15;1.00;;;;;;;;;;4181672;28;20057;-34
2021/12/08 02:07:13;;;;;;;1.60;1.15;;;;;;;;;;4181577;28;20083;-35
2021/12/08 02:09:16;;;;;;;1.45;1.00;;;;;;;;;;4181154;28;20100;-34
2021/12/08 02:11:19;;;;;;;1.10;1.00;;;;;;;;;;4181315;28;20559;-34
2021/12/08 02:13:21;;;;;;;1.73;0.90;;;;;;;;;;4181525;28;20060;-34
2021/12/08 02:15:22;;;;;;;0.98;0.88;;;;;;;;;;4181931;28;20110;-34
2021/12/08 02:17:23;;;;;;;1.50;1.25;;;;;;;;;;4181483;28;20114;-34
2021/12/08 02:19:24;;;;;;;1.25;1.15;;;;;;;;;;4163620;28;20115;-34
2021/12/08 02:21:32;;;;;;;1.10;1.00;;;;;;;;;;4163643;28;20068;-34
2021/12/08 02:23:33;;;;;;;1.20;1.10;;;;;;;;;;4176682;28;20069;-34
2021/12/08 02:25:35;;;;;;;1.50;0.98;;;;;;;;;;4165114;28;20064;-34
2021/12/08 02:27:36;;;;;;;1.55;1.00;;;;;;;;;;4147323;28;20065;-34
2021/12/08 02:29:46;;;;;;;1.13;1.02;;;;;;;;;;4164841;28;20539;-34
2021/12/08 02:47:53;;;;;;;1.52;1.00;;;;;;;;;;4164667;28;20102;-34
2021/12/08 02:49:56;;;;;;;1.23;1.00;;;;;;;;;;4164380;28;20054;-35
2021/12/08 02:51:57;;;;;;;1.35;1.13;;;;;;;;;;4164121;28;20099;-34
2021/12/08 02:53:58;;;;;;;1.38;1.27;;;;;;;;;;4164113;28;20054;-34
2021/12/08 02:55:59;;;;;;;1.70;1.00;;;;;;;;;;4164494;28;20555;-34
2021/12/08 02:58:02;;;;;;;1.48;1.05;;;;;;;;;;4164606;28;20101;-34
2021/12/08 03:00:16;;;;;;;1.45;1.10;;;;;;;;;;4164590;28;20191;-34
2021/12/08 03:02:17;;;;;;;1.88;1.15;;;;;;;;;;4164565;28;20058;-34
2021/12/08 03:04:19;;;;;;;1.42;1.20;;;;;;;;;;4164191;28;20482;-34
2021/12/08 03:06:21;;;;;;;1.42;1.10;;;;;;;;;;4164221;28;20061;-34
2021/12/08 03:08:22;;;;;;;0.95;0.82;;;;;;;;;;4164098;28;20054;-34
2021/12/08 03:10:27;;;;;;;1.25;1.10;;;;;;;;;;4164302;28;20065;-35
2021/12/08 03:12:30;;;;;;;2.10;1.20;;;;;;;;;;4164097;28;20061;-34
2021/12/08 03:14:31;;;;;;;1.20;1.10;;;;;;;;;;4164346;28;20049;-34
2021/12/08 03:16:34;;;;;;;1.33;0.98;;;;;;;;;;4164482;28;20060;-34
2021/12/08 03:18:37;;;;;;;1.23;1.00;;;;;;;;;;4164148;28;20064;-34
2021/12/08 03:20:40;;;;;;;1.58;1.17;;;;;;;;;;4164177;28;20342;-34
2021/12/08 03:22:46;;;;;;;1.13;1.02;;;;;;;;;;4146333;28;20151;-34
2021/12/08 03:24:50;;;;;;;1.42;1.05;;;;;;;;;;4178377;28;20562;-34
2021/12/08 03:29:02;;;;;;;1.63;1.10;;;;;;;;;;4162828;28;20064;-34
2021/12/08 03:33:05;;;;;;;1.35;1.15;;;;;;;;;;4180453;28;20068;-35
2021/12/08 03:35:11;;;;;;;1.63;1.08;;;;;;;;;;4162793;28;20160;-35
2021/12/08 03:37:12;;;;;;;1.00;0.77;;;;;;;;;;4163157;28;20057;-34
2021/12/08 03:39:13;;;;;;;1.30;1.10;;;;;;;;;;4152155;28;20108;-35
2021/12/08 03:41:15;;;;;;;1.77;1.10;;;;;;;;;;4130539;28;20058;-35
2021/12/08 03:43:16;;;;;;;2.33;1.20;;;;;;;;;;4147834;28;20066;-34
2021/12/08 03:45:31;;;;;;;1.55;1.00;;;;;;;;;;4147548;28;20359;-34
2021/12/08 03:47:33;;;;;;;1.55;1.20;;;;;;;;;;4147677;28;20054;-34
2021/12/08 03:49:34;;;;;;;1.67;1.35;;;;;;;;;;4147598;28;20355;-34
2021/12/08 03:51:36;;;;;;;1.55;1.00;;;;;;;;;;4146547;28;20100;-34
2021/12/08 03:53:38;;;;;;;1.67;1.30;;;;;;;;;;4147126;28;20054;-34
2021/12/08 03:55:39;;;;;;;1.30;1.10;;;;;;;;;;4147575;28;20100;-34
2021/12/08 03:57:41;;;;;;;1.50;1.10;;;;;;;;;;4147400;28;20057;-34
2021/12/08 03:59:42;;;;;;;1.40;1.17;;;;;;;;;;4147523;28;20517;-34
2021/12/08 04:01:44;;;;;;;1.15;1.05;;;;;;;;;;4147627;28;20057;-35
2021/12/08 04:03:49;;;;;;;1.58;1.08;;;;;;;;;;4148378;28;20101;-34
2021/12/08 04:05:56;;;;;;;1.65;1.15;;;;;;;;;;4150669;28;20402;-35
2021/12/08 04:08:03;;;;;;;1.33;0.95;;;;;;;;;;4150376;28;20099;-34
2021/12/08 04:10:06;;;;;;;1.95;1.10;;;;;;;;;;4150561;28;20053;-34
2021/12/08 04:12:09;;;;;;;1.13;0.88;;;;;;;;;;4150737;28;20088;-34
2021/12/08 04:14:13;;;;;;;1.27;1.10;;;;;;;;;;4116843;28;20058;-34
2021/12/08 04:16:20;;;;;;;1.60;1.02;;;;;;;;;;4150469;28;20104;-34
2021/12/08 04:18:21;;;;;;;0.98;0.88;;;;;;;;;;4150582;28;20057;-34
2021/12/08 04:20:28;;;;;;;1.30;0.93;;;;;;;;;;4150720;28;20053;-34
2021/12/08 04:22:34;;;;;;;1.20;1.10;;;;;;;;;;4150439;28;20418;-34
2021/12/08 04:24:36;;;;;;;1.50;1.35;;;;;;;;;;4144950;28;20084;-35
2021/12/08 04:26:43;;;;;;;1.80;0.90;;;;;;;;;;4166905;28;20064;-34
2021/12/08 04:28:44;;;;;;;1.67;1.17;;;;;;;;;;4166676;28;20065;-34
2021/12/08 04:30:53;;;;;;;1.35;1.00;;;;;;;;;;4149063;28;20107;-34
2021/12/08 04:32:55;;;;;;;1.52;1.08;;;;;;;;;;4183093;28;20067;-34
2021/12/08 04:34:59;;;;;;;1.50;1.15;;;;;;;;;;4183062;28;20099;-42
2021/12/08 04:37:08;;;;;;;1.15;0.88;;;;;;;;;;4165338;28;20131;-41
2021/12/08 04:39:23;;;;;;;1.35;0.85;;;;;;;;;;4166122;28;20049;-41
2021/12/08 04:41:33;;;;;;;1.30;0.93;;;;;;;;;;4166299;28;20053;-41
2021/12/08 04:43:46;;;;;;;;;;;;;;;;;;4166712;28;20073;-42
2021/12/08 04:46:19;;;;;;;1.58;0.98;;;;;;;;;;4166186;28;20424;-42
2021/12/08 04:48:40;;;;;;;1.40;1.00;;;;;;;;;;4166059;28;20053;-41
2021/12/08 04:53:36;;;;;;;1.23;1.13;;;;;;;;;;4165590;28;19921;-40
2021/12/08 05:00:25;;;;;;;1.92;1.27;;;;;;;;;;4166137;28;20064;-45
2021/12/08 05:05:03;;;;;;;1.13;0.93;;;;;;;;;;4164841;28;20080;-43
2021/12/08 05:09:25;;;;;;;1.00;0.85;;;;;;;;;;4165551;28;20057;-44
2021/12/08 05:11:32;;;;;;;1.42;1.05;;;;;;;;;;4165975;28;20061;-43
2021/12/08 05:13:34;;;;;;;0.93;0.82;;;;;;;;;;4166032;28;20107;-43
2021/12/08 05:15:40;;;;;;;1.30;1.00;;;;;;;;;;4165521;28;20057;-43
2021/12/08 05:18:07;;;;;;;1.42;1.10;;;;;;;;;;4165733;28;20062;-42
2021/12/08 05:20:17;;;;;;;1.23;0.70;;;;;;;;;;4166178;28;20068;-43
2021/12/08 05:22:24;;;;;;;;;;;;;;;;;;4166525;28;20061;-43
2021/12/08 05:24:32;;;;;;;1.98;1.15;;;;;;;;;;4165189;28;19921;-42
2021/12/08 05:26:41;;;;;;;2.45;1.13;;;;;;;;;;4165756;28;20080;-41
2021/12/08 05:28:44;;;;;;;0.98;0.70;;;;;;;;;;4165530;28;20450;-42
2021/12/08 05:30:54;;;;;;;2.38;1.10;;;;;;;;;;4165770;28;20135;-41
2021/12/08 05:32:56;;;;;;;0.85;0.80;;;;;;;;;;4165549;28;20061;-40
2021/12/08 05:34:57;;;;;;;1.63;0.98;;;;;;;;;;4165444;28;20050;-42
2021/12/08 05:36:59;;;;;;;2.55;1.60;;;;;;;;;;4165525;28;20061;-41
2021/12/08 05:39:06;;;;;;;0.93;0.75;;;;;;;;;;4163625;28;20107;-41
2021/12/08 05:41:17;;;;;;;0.90;0.80;;;;;;;;;;4165394;28;20057;-41
2021/12/08 05:43:19;;;;;;;1.33;1.00;;;;;;;;;;4165555;28;20108;-41
2021/12/08 05:45:21;;;;;;;1.80;1.15;;;;;;;;;;4165331;28;20053;-41
2021/12/08 05:47:26;;;;;;;1.20;1.00;;;;;;;;;;4165290;28;20504;-42
2021/12/08 05:49:28;;;;;;;1.17;0.70;;;;;;;;;;4165237;28;20049;-42
2021/12/08 05:51:34;;;;;;;0.98;0.63;;;;;;;;;;4165241;28;20111;-41
2021/12/08 05:53:37;;;;;;;1.40;1.00;;;;;;;;;;4164863;28;20061;-42
2021/12/08 05:55:39;;;;;;;1.20;0.95;;;;;;;;;;4165102;28;20061;-42
2021/12/08 05:57:42;;;;;;;1.70;0.75;;;;;;;;;;4165007;28;20054;-44
2021/12/08 05:59:46;;;;;;;0.95;0.73;;;;;;;;;;4165282;28;20061;-44
2021/12/08 06:01:54;;;;;;;0.70;0.70;;;;;;;;;;4192269;28;20052;-44
2021/12/08 06:03:56;;;;;;;1.27;0.55;;;;;;;;;;4180248;28;20068;-43
2021/12/08 06:05:58;;;;;;;1.08;0.80;;;;;;;;;;4197799;28;20106;-43
2021/12/08 06:07:59;;;;;;;2.35;0.75;;;;;;;;;;4197164;28;20060;-43
2021/12/08 06:10:06;;;;;;;0.82;0.80;;;;;;;;;;4197792;28;20068;-43
2021/12/08 06:12:09;;;;;;;1.00;0.80;;;;;;;;;;4198079;28;20057;-43
2021/12/08 06:14:11;;;;;;;1.05;0.70;;;;;;;;;;4197884;28;20049;-43
2021/12/08 06:16:13;;;;;;;0.93;0.75;;;;;;;;;;4197700;28;20060;-43
2021/12/08 06:18:15;;;;;;;0.80;0.50;;;;;;;;;;4197658;28;20547;-43
2021/12/08 06:20:17;;;;;;;0.68;0.50;;;;;;;;;;4197594;28;20459;-43
2021/12/08 06:22:20;;;;;;;0.90;0.70;;;;;;;;;;4197579;28;20060;-43
2021/12/08 06:24:21;;;;;;;0.52;0.50;;;;;;;;;;4197066;28;20416;-43
2021/12/08 06:26:24;;;;;;;1.20;0.80;;;;;;;;;;4197263;28;20064;-43
2021/12/08 06:28:25;;;;;;;0.52;0.40;;;;;;;;;;4197430;28;20052;-43
2021/12/08 06:30:30;;;;;;;0.70;0.60;;;;;;;;;;4197579;28;20083;-44
2021/12/08 06:32:31;;;;;;;0.80;0.68;;;;;;;;;;4197691;28;20060;-43
2021/12/08 06:34:33;;;;;;;0.50;0.50;;;;;;;;;;4197137;28;20378;-45
2021/12/08 06:36:43;;;;;;;0.70;0.45;;;;;;;;;;4197301;28;20056;-43
2021/12/08 06:38:45;;;;;;;0.60;0.50;;;;;;;;;;4192919;28;20076;-43
2021/12/08 06:40:51;;;;;;;0.95;0.55;;;;;;;;;;4178814;28;20451;-43
2021/12/08 06:43:00;;;;;;;0.50;0.50;;;;;;;;;;4171743;28;20107;-44
2021/12/08 06:45:01;;;;;;;0.82;0.70;;;;;;;;;;4171403;28;20079;-43
2021/12/08 06:47:05;;;;;;;0.38;0.38;;;;;;;;;;4180844;28;20048;-44
2021/12/08 06:49:09;;;;;;;0.70;0.57;;;;;;;;;;4179898;28;20463;-43
2021/12/08 06:51:38;;;;;;;0.50;0.45;;;;;;;;;;4180698;28;20061;-43
2021/12/08 06:53:41;;;;;;;0.63;0.52;;;;;;;;;;4173457;28;20060;-43
2021/12/08 06:55:49;;;;;;;0.40;0.40;;;;;;;;;;4180441;28;20053;-44
2021/12/08 06:57:59;;;;;;;0.52;0.40;;;;;;;;;;4154952;28;20077;-44
2021/12/08 07:00:15;;;;;;;0.68;0.47;;;;;;;;;;4146107;28;20061;-43
2021/12/08 07:02:32;;;;;;;0.50;0.40;;;;;;;;;;4163523;28;20057;-43
2021/12/08 07:04:53;;;;;;;0.65;0.60;;;;;;;;;;4163627;28;20104;-43
2021/12/08 07:07:12;;;;;;;0.90;0.80;;;;;;;;;;4146002;28;20053;-43
2021/12/08 07:09:20;;;;;;;0.45;0.40;;;;;;;;;;4162313;28;20115;-43
2021/12/08 07:11:23;;;;;;;0.60;0.47;;;;;;;;;;4163667;28;20112;-44
2021/12/08 07:13:26;;;;;;;1.77;0.50;;;;;;;;;;4150724;28;20395;-44
2021/12/08 07:15:35;;;;;;;0.47;0.40;;;;;;;;;;4173116;28;20097;-43
2021/12/08 07:17:40;;;;;;;0.70;0.70;;;;;;;;;;4188938;28;20061;-44
2021/12/08 07:19:51;;;;;;;0.68;0.40;;;;;;;;;;4167914;28;21234;-44
2021/12/08 07:21:55;;;;;;;0.70;0.47;;;;;;;;;;4177406;28;20086;-44
2021/12/08 07:24:19;;;;;;;0.30;0.30;;;;;;;;;;4185486;28;20052;-43
2021/12/08 07:26:24;;;;;;;1.48;0.60;;;;;;;;;;4173625;28;20520;-43
2021/12/08 07:28:27;;;;;;;0.77;0.60;;;;;;;;;;4169670;28;20103;-44
2021/12/08 07:30:34;;;;;;;0.40;0.40;;;;;;;;;;4179508;28;20045;-43
2021/12/08 07:32:37;;;;;;;0.70;0.35;;;;;;;;;;4180686;28;20460;-44
2021/12/08 07:34:38;;;;;;;0.32;0.30;;;;;;;;;;4183618;28;20056;-43
2021/12/08 07:36:42;;;;;;;0.60;0.40;;;;;;;;;;4179219;28;20053;-44
2021/12/08 07:38:48;;;;;;;0.68;0.40;;;;;;;;;;4188191;28;20456;-44
2021/12/08 07:41:05;;;;;;;1.05;0.65;;;;;;;;;;4182496;28;20408;-42
2021/12/08 07:43:11;;;;;;;0.85;0.40;;;;;;;;;;4185014;28;20102;-43
2021/12/08 07:45:16;;;;;;;0.55;0.40;;;;;;;;;;4170007;28;20241;-43
2021/12/08 07:47:20;;;;;;;0.32;0.32;;;;;;;;;;4160318;28;20450;-42
2021/12/08 07:49:43;;;;;;;1.65;0.30;;;;;;;;;;4178629;28;20107;-42
2021/12/08 07:51:58;;;;;;;0.98;0.50;;;;;;;;;;4171264;28;20061;-43
2021/12/08 07:54:01;;;;;;;0.40;0.40;;;;;;;;;;4182216;28;20075;-43
2021/12/08 07:56:06;;;;;;;1.38;0.80;;;;;;;;;;4179816;28;20528;-42
2021/12/08 07:58:10;;;;;;;0.60;0.35;;;;;;;;;;4179173;28;20526;-43
2021/12/08 08:00:16;;;;;;;0.38;0.38;;;;;;;;;;4191733;28;20106;-43
2021/12/08 08:02:18;;;;;;;0.38;0.30;;;;;;;;;;4190253;28;20444;-40
2021/12/08 08:04:26;;;;;;;2.22;0.60;;;;;;;;;;4169616;28;20060;-43
2021/12/08 08:06:34;;;;;;;0.88;0.45;;;;;;;;;;4172112;28;20162;-42
2021/12/08 08:08:35;;;;;;;0.40;0.30;;;;;;;;;;4174367;28;20198;-42
2021/12/08 08:10:42;;;;;;;0.77;0.50;;;;;;;;;;4172369;28;20504;-42
2021/12/08 08:12:46;;;;;;;0.45;0.40;;;;;;;;;;4177741;28;20106;-43
2021/12/08 08:14:52;;;;;;;0.40;0.38;;;;;;;;;;4176790;28;20047;-42
2021/12/08 08:16:57;;;;;;;0.60;0.40;;;;;;;;;;4173365;28;20497;-43
2021/12/08 08:19:06;;;;;;;0.22;0.20;;;;;;;;;;4161613;28;20069;-43
2021/12/08 08:21:13;;;;;;;0.82;0.40;;;;;;;;;;4162449;28;20410;-41
2021/12/08 08:23:20;;;;;;;1.08;0.35;;;;;;;;;;4179862;28;20097;-42
2021/12/08 08:25:25;;;;;;;0.93;0.40;;;;;;;;;;4177369;28;20048;-40
2021/12/08 08:27:27;;;;;;;0.75;0.40;;;;;;;;;;4179144;28;20111;-43
2021/12/08 08:29:28;;;;;;;0.63;0.40;;;;;;;;;;4179032;28;20089;-41
2021/12/08 08:31:34;;;;;;;1.73;0.25;;;;;;;;;;4162501;28;20065;-42
2021/12/08 08:33:36;;;;;;;0.65;0.40;;;;;;;;;;4178597;28;20071;-43
2021/12/08 08:35:42;;;;;;;0.77;0.50;;;;;;;;;;4178758;28;20101;-42
2021/12/08 08:37:44;;;;;;;0.40;0.40;;;;;;;;;;4175661;28;20456;-42
2021/12/08 08:39:52;;;;;;;1.52;0.40;;;;;;;;;;4162773;28;20064;-44
2021/12/08 08:42:16;;;;;;;0.55;0.40;;;;;;;;;;4178496;28;20410;-43
2021/12/08 08:44:42;;;;;;;0.40;0.40;;;;;;;;;;4180893;28;20094;-43
2021/12/08 08:46:46;;;;;;;0.75;0.30;;;;;;;;;;4178487;28;20206;-44
2021/12/08 08:48:57;;;;;;;0.52;0.38;;;;;;;;;;4159253;28;20414;-43
2021/12/08 08:51:04;;;;;;;0.90;0.45;;;;;;;;;;4171836;28;20595;-43
2021/12/08 08:53:08;;;;;;;0.28;0.22;;;;;;;;;;4165901;28;20060;-43
2021/12/08 08:55:17;;;;;;;0.65;0.32;;;;;;;;;;4159866;28;20061;-42
2021/12/08 08:57:22;;;;;;;0.40;0.38;;;;;;;;;;4178277;28;20049;-43
2021/12/08 08:59:27;;;;;;;0.22;0.22;;;;;;;;;;4177409;28;20460;-42
2021/12/08 09:01:35;;;;;;;0.70;0.52;;;;;;;;;;4159589;28;20438;-43
2021/12/08 09:03:42;;;;;;;0.30;0.30;;;;;;;;;;4172839;28;20056;-41
2021/12/08 09:05:52;;;;;;;1.02;0.35;;;;;;;;;;4167561;28;20121;-43
2021/12/08 09:07:56;;;;;;;0.45;0.20;;;;;;;;;;4175291;28;20057;-42
2021/12/08 09:10:03;;;;;;;0.40;0.35;;;;;;;;;;4161384;28;20470;-41
2021/12/08 09:12:10;;;;;;;0.65;0.40;;;;;;;;;;4172560;28;20499;-42
2021/12/08 09:14:15;;;;;;;0.75;0.40;;;;;;;;;;4175939;28;20426;-42
2021/12/08 09:16:24;;;;;;;2.15;0.40;;;;;;;;;;4158285;28;20446;-42
2021/12/08 09:18:44;;;;;;;0.47;0.30;;;;;;;;;;4174276;28;20103;-43
2021/12/08 09:20:56;;;;;;;;;;;;;;;;;;4170777;28;20061;-41
2021/12/08 09:23:07;;;;;;;0.38;0.30;;;;;;;;;;4167255;28;19986;-43
2021/12/08 09:25:14;;;;;;;0.20;0.20;;;;;;;;;;4146549;28;20519;-42
2021/12/08 09:27:21;;;;;;;0.40;0.30;;;;;;;;;;4134496;28;20093;-42
2021/12/08 09:29:30;;;;;;;0.70;0.38;;;;;;;;;;4152596;28;20066;-44
2021/12/08 09:32:05;;;;;;;1.70;0.25;;;;;;;;;;4149427;28;20496;-42
2021/12/08 09:34:20;;;;;;;0.40;0.35;;;;;;;;;;4147953;28;20196;-43
2021/12/08 09:36:38;;;;;;;0.57;0.38;;;;;;;;;;4151106;28;20534;-42
2021/12/08 09:38:51;;;;;;;1.13;0.45;;;;;;;;;;4152763;28;20099;-42
2021/12/08 09:41:00;;;;;;;1.02;0.40;;;;;;;;;;4134190;28;20066;-43
2021/12/08 09:43:07;;;;;;;0.38;0.30;;;;;;;;;;4152231;28;20049;-42
2021/12/08 09:45:36;;;;;;;0.43;0.43;;;;;;;;;;4149042;28;20399;-42
2021/12/08 09:47:37;;;;;;;0.80;0.47;;;;;;;;;;4106962;28;20058;-42
2021/12/08 09:49:39;;;;;;;0.80;0.30;;;;;;;;;;4150479;28;20108;-43
2021/12/08 09:51:41;;;;;;;0.47;0.30;;;;;;;;;;4149149;28;20060;-42
2021/12/08 09:53:43;;;;;;;0.68;0.30;;;;;;;;;;4149971;28;21533;-41
2021/12/08 09:55:44;;;;;;;0.30;0.30;;;;;;;;;;4151978;28;20639;-43
2021/12/08 09:57:46;;;;;;;0.43;0.38;;;;;;;;;;4150835;28;20561;-42
2021/12/08 09:59:49;;;;;;;1.85;0.22;;;;;;;;;;4150627;28;20049;-43
2021/12/08 10:01:52;;;;;;;2.17;0.38;;;;;;;;;;4151236;28;20425;-43
2021/12/08 10:03:55;;;;;;;0.38;0.28;;;;;;;;;;4150944;28;20053;-43
2021/12/08 10:05:56;;;;;;;0.30;0.30;;;;;;;;;;4152663;28;20061;-42
2021/12/08 10:07:58;;;;;;;0.40;0.30;;;;;;;;;;4134028;28;20529;-43
2021/12/08 10:09:59;;;;;;;0.45;0.30;;;;;;;;;;4152255;28;20104;-42
2021/12/08 10:12:02;;;;;;;0.73;0.50;;;;;;;;;;4151551;28;20123;-42
2021/12/08 10:14:03;;;;;;;0.40;0.20;;;;;;;;;;4154250;28;20052;-42
2021/12/08 10:16:06;;;;;;;1.23;0.40;;;;;;;;;;4152347;28;20451;-42
2021/12/08 10:18:08;;;;;;;0.52;0.40;;;;;;;;;;4152675;28;20057;-43
2021/12/08 10:20:14;;;;;;;1.05;0.30;;;;;;;;;;4133843;28;20113;-41
2021/12/08 10:22:23;;;;;;;1.33;0.47;;;;;;;;;;4220996;27;21528;-34
2021/12/08 10:24:26;;;;;;;0.55;0.30;;;;;;;;;;4210805;28;20492;-33
2021/12/08 10:26:32;;;;;;;0.88;0.40;;;;;;;;;;4207594;28;20456;-34
2021/12/08 10:28:40;;;;;;;0.82;0.38;;;;;;;;;;4209861;28;20098;-33
2021/12/08 10:30:51;;;;;;;0.75;0.30;;;;;;;;;;4208813;28;20429;-34
2021/12/08 10:32:54;;;;;;;0.52;0.40;;;;;;;;;;4209799;28;20048;-34
2021/12/08 10:35:05;;;;;;;0.93;0.50;;;;;;;;;;4207995;28;20048;-33
2021/12/08 10:37:09;;;;;;;0.45;0.30;;;;;;;;;;4222226;28;20032;-33
2021/12/08 10:39:10;;;;;;;0.98;0.40;;;;;;;;;;4206596;28;20048;-34
2021/12/08 10:41:11;;;;;;;0.73;0.43;;;;;;;;;;4208603;28;20044;-32
2021/12/08 10:43:13;;;;;;;0.80;0.40;;;;;;;;;;4208494;28;20442;-40
2021/12/08 10:45:22;;;;;;;0.50;0.25;;;;;;;;;;4205463;28;20130;-38
2021/12/08 10:47:25;;;;;;;0.30;0.30;;;;;;;;;;4203663;28;20052;-41
2021/12/08 10:54:25;;;;;;;0.50;0.30;;;;;;;;;;4206848;28;20193;-36
2021/12/08 10:54:25;;;;;;;0.90;0.50;;;;;;;;;;4213695;28;20066;-34
2021/12/08 10:56:32;;;;;;;0.43;0.20;;;;;;;;;;4202225;28;20135;-36
2021/12/08 10:58:35;;;;;;;0.88;0.40;;;;;;;;;;4219151;28;20059;-38
2021/12/08 11:00:39;;;;;;;0.30;0.22;;;;;;;;;;4209702;28;20114;-37
2021/12/08 11:02:54;;;;;;;0.28;0.28;;;;;;;;;;4205855;28;20075;-36
2021/12/08 11:04:55;;;;;;;0.30;0.30;;;;;;;;;;4205446;28;20059;-40
2021/12/08 11:07:04;;;;;;;0.93;0.30;;;;;;;;;;4205834;28;20070;-39
2021/12/08 11:09:13;;;;;;;0.30;0.30;;;;;;;;;;4205347;28;20052;-40
2021/12/08 11:11:18;;;;;;;0.30;0.30;;;;;;;;;;4202992;28;20047;-42
2021/12/08 11:13:21;;;;;;;0.38;0.38;;;;;;;;;;4205308;28;20464;-40
2021/12/08 11:15:23;;;;;;;0.40;0.30;;;;;;;;;;4206891;28;20365;-44
2021/12/08 11:17:26;;;;;;;0.30;0.30;;;;;;;;;;4205556;28;20187;-43
2021/12/08 11:19:28;;;;;;;1.95;0.30;;;;;;;;;;4208557;28;20095;-43
2021/12/08 11:21:38;;;;;;;0.15;0.15;;;;;;;;;;4202089;28;20067;-38
2021/12/08 11:23:46;;;;;;;0.47;0.35;;;;;;;;;;4201016;28;20442;-41
2021/12/08 11:25:50;;;;;;;0.40;0.30;;;;;;;;;;4204826;28;20551;-42
2021/12/08 11:27:51;;;;;;;0.25;0.25;;;;;;;;;;4204289;28;20052;-42
2021/12/08 11:29:52;;;;;;;0.55;0.32;;;;;;;;;;4207032;28;20044;-45
2021/12/08 11:31:55;;;;;;;0.82;0.30;;;;;;;;;;4206639;28;20100;-42
2021/12/08 11:34:05;;;;;;;0.60;0.25;;;;;;;;;;4193806;28;20202;-42
2021/12/08 11:36:07;;;;;;;1.25;0.30;;;;;;;;;;4194049;28;20061;-42
2021/12/08 11:38:08;;;;;;;0.80;0.55;;;;;;;;;;4193562;28;20045;-38
2021/12/08 11:40:16;;;;;;;1.75;0.35;;;;;;;;;;4196600;28;20059;-42
2021/12/08 11:42:18;;;;;;;0.73;0.30;;;;;;;;;;4196945;28;20472;-43
2021/12/08 11:44:20;;;;;;;0.40;0.30;;;;;;;;;;4196436;28;20507;-41
2021/12/08 11:46:21;;;;;;;1.20;0.45;;;;;;;;;;4196460;28;20782;-41
2021/12/08 11:48:23;;;;;;;0.77;0.47;;;;;;;;;;4193585;28;20170;-42
2021/12/08 11:50:24;;;;;;;0.55;0.38;;;;;;;;;;4193209;28;20170;-42
2021/12/08 11:52:29;;;;;;;0.30;0.30;;;;;;;;;;4194957;28;20044;-42
2021/12/08 11:54:34;;;;;;;0.50;0.30;;;;;;;;;;4193603;28;20085;-40
2021/12/08 11:56:40;;;;;;;0.82;0.45;;;;;;;;;;4194233;28;20067;-41
2021/12/08 11:58:53;;;;;;;0.38;0.25;;;;;;;;;;4191148;28;20048;-42
2021/12/08 12:00:55;;;;;;;0.55;0.38;;;;;;;;;;4191515;28;20045;-45
2021/12/08 12:03:00;;;;;;;0.20;0.20;;;;;;;;;;4193837;28;20050;-43
2021/12/08 12:05:03;;;;;;;0.70;0.45;;;;;;;;;;4189587;28;20441;-41
2021/12/08 12:07:04;;;;;;;1.70;0.40;;;;;;;;;;4188789;28;20484;-40
2021/12/08 12:09:06;;;;;;;0.80;0.50;;;;;;;;;;4189497;28;20143;-40
2021/12/08 12:11:07;;;;;;;0.43;0.40;;;;;;;;;;4190495;28;20052;-42
2021/12/08 12:13:11;;;;;;;1.08;0.28;;;;;;;;;;4189920;28;20048;-43
2021/12/08 12:15:14;;;;;;;0.77;0.50;;;;;;;;;;4189834;28;20053;-42
2021/12/08 12:17:15;;;;;;;0.38;0.30;;;;;;;;;;4189309;28;20078;-43
2021/12/08 12:19:19;;;;;;;0.20;0.20;;;;;;;;;;4189985;28;20060;-43
2021/12/08 12:21:40;;;;;;;0.88;0.40;;;;;;;;;;4187962;28;20052;-44
2021/12/08 12:23:58;;;;;;;0.80;0.40;;;;;;;;;;4190611;28;20048;-41
2021/12/08 12:26:09;;;;;;;0.85;0.32;;;;;;;;;;4191792;28;20060;-42
2021/12/08 12:28:33;;;;;;;1.33;0.20;;;;;;;;;;4193712;28;20053;-42
2021/12/08 12:30:45;;;;;;;2.10;0.30;;;;;;;;;;4155730;28;20393;-40
2021/12/08 12:32:51;;;;;;;0.95;0.40;;;;;;;;;;4192319;28;20455;-42
2021/12/08 12:35:07;;;;;;;1.55;0.45;;;;;;;;;;4189539;28;20106;-41
2021/12/08 12:37:17;;;;;;;1.13;0.40;;;;;;;;;;4193306;28;20094;-39
2021/12/08 12:39:20;;;;;;;0.40;0.30;;;;;;;;;;4194168;28;20058;-42
2021/12/08 12:41:26;;;;;;;0.70;0.30;;;;;;;;;;4193851;28;20154;-40
2021/12/08 12:43:28;;;;;;;1.88;0.30;;;;;;;;;;4194116;28;20045;-42
2021/12/08 12:45:37;;;;;;;0.40;0.28;;;;;;;;;;4193801;28;20050;-41
2021/12/08 12:47:38;;;;;;;0.43;0.40;;;;;;;;;;4193514;28;20139;-41
2021/12/08 12:49:43;;;;;;;0.47;0.30;;;;;;;;;;4190976;28;20048;-42
2021/12/08 12:51:58;;;;;;;1.88;0.30;;;;;;;;;;4192008;28;20056;-40
2021/12/08 12:53:59;;;;;;;0.90;0.45;;;;;;;;;;4194057;28;20048;-41
2021/12/08 12:56:00;;;;;;;0.68;0.40;;;;;;;;;;4192545;28;20052;-40
2021/12/08 12:58:04;;;;;;;0.50;0.20;;;;;;;;;;4192444;28;20722;-42
2021/12/08 13:00:23;;;;;;;0.60;0.40;;;;;;;;;;4191079;28;20098;-39
2021/12/08 13:02:36;;;;;;;0.43;0.40;;;;;;;;;;4187784;28;20048;-42
2021/12/08 13:04:56;;;;;;;0.45;0.40;;;;;;;;;;4191286;28;20055;-40
2021/12/08 13:06:58;;;;;;;0.25;0.22;;;;;;;;;;4184867;28;20047;-39
2021/12/08 13:09:00;;;;;;;0.68;0.50;;;;;;;;;;4188641;28;20102;-41
2021/12/08 13:11:05;;;;;;;0.30;0.30;;;;;;;;;;4185194;28;20053;-42
2021/12/08 13:13:11;;;;;;;0.52;0.40;;;;;;;;;;4188970;28;20044;-42